Time;durP1;ratioP1;P1;durP2;ratioP2;P2;SDS_P1;SDS_P2;PMS_P1;PMS_P2;Temp;Humidity;BMP_temperature;BMP_pressure;BME280_temperature;BME280_humidity;BME280_pressure;Samples;Min_cycle;Max_cycle;Signal;HPM_P1;HPM_P2
2022/01/28 00:00:32;;;;;;;22.83;13.98;;;;;;;2.94;86.76;100791.72;345176;28;1094;-66
2022/01/28 00:00:49;;;;;;;23.52;13.95;;;;;;;2.85;86.16;100786.41;344906;28;1899;-66
2022/01/28 00:01:02;;;;;;;24.85;13.48;;;;;;;2.97;86.61;100786.63;344913;28;1207;-66
2022/01/28 00:01:19;;;;;;;25.33;13.95;;;;;;;2.87;86.45;100779.59;344956;28;1018;-66
2022/01/28 00:01:39;;;;;;;25.67;14.52;;;;;;;2.92;86.68;100788.25;344986;28;1019;-66
2022/01/28 00:02:04;;;;;;;24.77;13.80;;;;;;;2.82;86.74;100791.47;345056;28;1205;-66
2022/01/28 00:03:09;;;;;;;23.85;13.25;;;;;;;2.63;87.59;100775.75;345025;28;1033;-66
2022/01/28 00:03:21;;;;;;;24.50;13.30;;;;;;;2.58;87.78;100792.78;345038;28;1046;-66
2022/01/28 00:03:36;;;;;;;25.35;14.02;;;;;;;2.59;88.30;100789.38;345037;28;1123;-66
2022/01/28 00:03:49;;;;;;;25.88;14.48;;;;;;;2.54;88.08;100812.41;345059;28;1059;-66
2022/01/28 00:04:11;;;;;;;24.80;13.65;;;;;;;2.57;88.02;100811.59;345068;28;1298;-66
2022/01/28 00:04:23;;;;;;;23.60;12.45;;;;;;;2.58;88.17;100785.09;344819;28;1074;-66
2022/01/28 00:04:35;;;;;;;23.58;13.45;;;;;;;2.67;88.16;100805.78;344703;28;1048;-66
2022/01/28 00:04:50;;;;;;;23.40;13.98;;;;;;;2.68;88.17;100814.38;344932;28;1239;-66
2022/01/28 00:05:02;;;;;;;22.83;13.55;;;;;;;2.75;88.00;100778.53;344806;28;1159;-66
2022/01/28 00:05:22;;;;;;;23.25;12.68;;;;;;;2.75;87.84;100786.25;344942;28;1050;-66
2022/01/28 00:05:36;;;;;;;26.17;13.25;;;;;;;2.75;87.48;100799.06;345022;28;1058;-66
2022/01/28 00:05:57;;;;;;;27.63;14.07;;;;;;;2.70;87.74;100789.59;344954;28;1041;-66
2022/01/28 00:06:10;;;;;;;26.38;13.55;;;;;;;2.70;87.64;100793.00;344914;28;1041;-66
2022/01/28 00:06:22;;;;;;;24.27;13.10;;;;;;;2.67;87.90;100786.94;345008;28;1115;-66
2022/01/28 00:06:34;;;;;;;24.05;13.15;;;;;;;2.63;87.92;100788.59;344965;28;1187;-66
2022/01/28 00:06:46;;;;;;;26.45;13.68;;;;;;;2.64;88.41;100771.50;344959;28;1096;-66
2022/01/28 00:06:57;;;;;;;28.55;13.85;;;;;;;2.68;88.24;100802.38;345011;28;1087;-66
2022/01/28 00:07:12;;;;;;;26.05;14.23;;;;;;;2.72;87.76;100775.06;345023;28;1822;-66
2022/01/28 00:07:24;;;;;;;25.42;14.15;;;;;;;2.76;87.77;100782.84;344932;28;1034;-66
2022/01/28 00:07:36;;;;;;;24.25;13.43;;;;;;;2.87;87.83;100774.47;344956;28;1071;-66
2022/01/28 00:07:51;;;;;;;24.40;13.13;;;;;;;2.73;87.70;100790.47;345061;28;1050;-66
2022/01/28 00:08:04;;;;;;;24.55;13.63;;;;;;;2.72;87.75;100801.59;344864;28;1030;-66
2022/01/28 00:08:16;;;;;;;23.88;14.15;;;;;;;2.72;87.94;100785.34;345079;28;1039;-66
2022/01/28 00:08:29;;;;;;;25.17;13.75;;;;;;;2.77;87.71;100791.41;345104;28;1019;-66
2022/01/28 00:08:41;;;;;;;26.13;13.18;;;;;;;2.70;87.49;100785.31;345055;28;1283;-66
2022/01/28 00:08:52;;;;;;;25.78;13.64;;;;;;;2.66;88.32;100783.53;345009;28;1151;-66
2022/01/28 00:09:05;;;;;;;25.58;14.57;;;;;;;2.61;88.55;100790.28;345025;28;1173;-66
2022/01/28 00:09:17;;;;;;;24.77;14.20;;;;;;;2.64;88.16;100786.91;344878;28;936;-66
2022/01/28 00:09:29;;;;;;;25.73;13.80;;;;;;;2.68;88.38;100787.00;344972;28;1242;-66
2022/01/28 00:09:41;;;;;;;25.60;13.32;;;;;;;2.69;88.06;100770.72;344993;28;1200;-66
2022/01/28 00:09:53;;;;;;;24.35;13.73;;;;;;;2.76;87.96;100775.16;345254;28;1030;-66
2022/01/28 00:10:05;;;;;;;23.85;14.38;;;;;;;2.78;87.76;100782.88;344935;28;1170;-66
2022/01/28 00:10:19;;;;;;;25.38;14.52;;;;;;;2.73;87.58;100771.66;344786;28;1103;-66
2022/01/28 00:10:33;;;;;;;25.58;13.88;;;;;;;2.70;88.08;100787.88;344878;28;1295;-66
2022/01/28 00:10:45;;;;;;;24.30;13.68;;;;;;;2.65;87.89;100789.47;344825;28;1165;-66
2022/01/28 00:11:02;;;;;;;24.10;14.25;;;;;;;2.58;88.05;100787.66;344884;28;1055;-66
2022/01/28 00:11:14;;;;;;;26.05;15.07;;;;;;;2.62;88.41;100784.31;345165;28;844;-66
2022/01/28 00:11:26;;;;;;;26.73;14.57;;;;;;;2.66;88.46;100790.38;344893;28;1284;-66
2022/01/28 00:11:38;;;;;;;27.90;13.98;;;;;;;2.70;88.00;100793.00;344918;28;1079;-66
2022/01/28 00:11:50;;;;;;;26.83;13.85;;;;;;;2.76;87.71;100798.25;345081;28;1270;-66
2022/01/28 00:12:03;;;;;;;25.83;13.75;;;;;;;2.75;88.01;100781.09;345301;28;1233;-66
2022/01/28 00:12:15;;;;;;;24.17;13.73;;;;;;;2.65;88.09;100784.34;345162;28;1191;-66
2022/01/28 00:12:29;;;;;;;25.80;14.85;;;;;;;2.69;88.12;100793.84;345010;28;1070;-66
2022/01/28 00:13:31;;;;;;;26.63;14.95;;;;;;;2.65;88.58;100791.19;345018;28;1227;-66
2022/01/28 00:13:38;;;;;;;25.92;14.48;;;;;;;2.78;88.15;100795.72;344630;28;1281;-66
2022/01/28 00:13:52;;;;;;;27.33;14.55;;;;;;;2.75;87.70;100796.50;345071;28;1260;-66
2022/01/28 00:14:23;;;;;;;27.95;15.35;;;;;;;2.65;88.30;100797.19;344979;28;1003;-66
2022/01/28 00:15:23;;;;;;;24.88;13.15;;;;;;;2.53;88.54;100796.97;344638;28;1283;-66
2022/01/28 00:21:02;;;;;;;25.35;14.52;;;;;;;2.79;87.92;100813.69;340677;29;1118;-66
2022/01/28 00:38:08;;;;;;;21.92;12.50;;;;;;;2.81;87.94;100782.91;345065;28;1022;-66
2022/01/28 00:38:32;;;;;;;23.85;13.40;;;;;;;2.84;87.67;100782.09;345002;28;1247;-67
2022/01/28 00:38:45;;;;;;;23.77;14.23;;;;;;;2.76;88.10;100802.53;345109;28;1155;-66
2022/01/28 00:38:58;;;;;;;22.20;13.30;;;;;;;2.79;87.79;100793.16;344936;28;1149;-66
2022/01/28 00:39:10;;;;;;;22.33;13.45;;;;;;;2.82;88.11;100791.47;345204;28;1079;-66
2022/01/28 00:39:22;;;;;;;23.95;14.00;;;;;;;2.86;87.57;100788.13;345111;28;1237;-66
2022/01/28 00:39:34;;;;;;;23.90;13.65;;;;;;;2.72;87.68;100801.59;345122;28;1199;-66
2022/01/28 00:39:47;;;;;;;23.08;13.20;;;;;;;2.67;87.94;100787.81;345227;28;1193;-66
2022/01/28 00:39:59;;;;;;;23.20;13.10;;;;;;;2.65;88.51;100804.88;344862;28;1287;-66
2022/01/28 00:40:11;;;;;;;23.83;13.48;;;;;;;2.57;88.32;100812.44;344949;28;1035;-66
2022/01/28 00:40:28;;;;;;;23.90;13.93;;;;;;;2.55;89.04;100805.56;344886;28;1102;-66
2022/01/28 00:40:40;;;;;;;23.48;13.68;;;;;;;2.53;89.13;100790.13;344994;28;1185;-66
2022/01/28 00:40:52;;;;;;;23.00;13.50;;;;;;;2.51;88.88;100785.81;344977;28;1179;-66
2022/01/28 00:41:04;;;;;;;25.15;14.20;;;;;;;2.48;89.31;100806.31;344962;28;1110;-66
2022/01/28 00:41:16;;;;;;;25.42;14.00;;;;;;;2.55;89.32;100790.16;345066;28;1100;-66
2022/01/28 00:41:28;;;;;;;24.83;13.88;;;;;;;2.52;88.87;100790.97;344879;28;1122;-66
2022/01/28 00:41:40;;;;;;;23.35;13.35;;;;;;;2.58;88.89;100785.09;344909;28;1102;-66
2022/01/28 00:41:52;;;;;;;24.08;12.95;;;;;;;2.59;88.92;100786.81;344770;28;1091;-66
2022/01/28 00:42:04;;;;;;;24.00;13.15;;;;;;;2.56;89.31;100794.47;345127;28;1236;-66
2022/01/28 00:42:17;;;;;;;23.65;13.82;;;;;;;2.55;88.89;100792.72;345123;28;1136;-66
2022/01/28 00:42:29;;;;;;;22.23;14.00;;;;;;;2.50;88.93;100799.50;344998;28;1263;-66
2022/01/28 00:42:41;;;;;;;22.55;13.65;;;;;;;2.48;89.28;100796.03;345093;28;1055;-66
2022/01/28 00:42:53;;;;;;;21.73;12.90;;;;;;;2.48;89.33;100806.31;345023;28;1910;-66
2022/01/28 00:43:06;;;;;;;21.85;12.60;;;;;;;2.46;89.52;100800.28;343696;28;1206;-66
2022/01/28 00:43:18;;;;;;;22.17;12.95;;;;;;;2.47;89.21;100784.03;343669;28;1307;-66
2022/01/28 00:43:30;;;;;;;24.17;13.95;;;;;;;2.49;89.67;100792.63;343538;28;1084;-66
2022/01/28 00:43:45;;;;;;;25.10;13.68;;;;;;;2.55;89.15;100790.16;343468;28;1059;-66
2022/01/28 00:43:57;;;;;;;25.35;13.05;;;;;;;2.57;89.34;100806.44;343431;28;1144;-66
2022/01/28 00:44:09;;;;;;;24.75;13.02;;;;;;;2.61;88.81;100803.09;343525;28;1259;-66
2022/01/28 00:44:21;;;;;;;24.10;13.77;;;;;;;2.68;89.02;100810.09;343339;28;1275;-66
2022/01/28 00:44:33;;;;;;;24.38;14.15;;;;;;;2.66;88.58;100772.41;343291;28;1063;-66
2022/01/28 00:44:45;;;;;;;23.20;13.25;;;;;;;2.70;88.31;100803.28;343476;28;1084;-66
2022/01/28 00:44:57;;;;;;;21.77;12.35;;;;;;;2.63;88.31;100808.28;344024;28;1019;-66
2022/01/28 00:45:09;;;;;;;22.45;13.00;;;;;;;2.57;88.58;100799.59;344994;28;1014;-66
2022/01/28 00:45:21;;;;;;;24.65;13.82;;;;;;;2.59;89.06;100815.91;345144;28;1022;-66
2022/01/28 00:45:36;;;;;;;25.25;13.38;;;;;;;2.68;88.36;100801.53;345206;28;1246;-66
2022/01/28 00:45:48;;;;;;;23.33;12.63;;;;;;;2.69;88.46;100801.53;344830;28;1087;-66
2022/01/28 00:46:00;;;;;;;23.52;13.55;;;;;;;2.60;88.61;100798.81;345163;28;1105;-66
2022/01/28 00:46:12;;;;;;;22.17;13.40;;;;;;;2.74;88.57;100801.66;345067;28;1122;-66
2022/01/28 00:46:24;;;;;;;21.90;13.60;;;;;;;2.64;88.23;100803.19;344861;28;1091;-66
2022/01/28 00:46:36;;;;;;;22.35;13.63;;;;;;;2.66;88.30;100796.38;344671;28;1058;-66
2022/01/28 00:46:48;;;;;;;23.52;13.88;;;;;;;2.71;88.12;100793.88;344826;28;1015;-66
2022/01/28 00:47:01;;;;;;;23.58;13.48;;;;;;;2.70;88.67;100782.75;344814;28;1308;-66
2022/01/28 00:47:13;;;;;;;23.77;13.43;;;;;;;2.76;88.37;100794.81;344921;28;1059;-67
2022/01/28 00:47:25;;;;;;;24.52;13.70;;;;;;;2.74;88.03;100792.22;343694;28;1280;-66
2022/01/28 00:47:37;;;;;;;24.98;13.98;;;;;;;2.71;88.35;100787.03;343493;28;1158;-66
2022/01/28 00:47:49;;;;;;;24.05;13.60;;;;;;;2.76;88.24;100780.28;343926;28;767;-66
2022/01/28 00:48:02;;;;;;;24.52;13.80;;;;;;;2.79;88.02;100780.31;343344;28;1060;-66
2022/01/28 00:48:14;;;;;;;24.33;14.18;;;;;;;2.89;87.48;100783.06;343827;28;1262;-66
2022/01/28 00:48:26;;;;;;;24.38;14.43;;;;;;;2.92;87.37;100783.13;344882;28;1047;-66
2022/01/28 00:48:38;;;;;;;24.95;14.38;;;;;;;2.88;87.39;100782.19;344800;28;1286;-66
2022/01/28 00:48:50;;;;;;;25.40;14.27;;;;;;;2.82;87.85;100781.22;344934;28;1090;-66
2022/01/28 00:49:02;;;;;;;25.83;14.65;;;;;;;2.89;87.85;100783.06;344883;28;1106;-66
2022/01/28 00:49:15;;;;;;;24.35;14.55;;;;;;;2.87;87.42;100779.59;343520;28;1199;-66
2022/01/28 00:49:27;;;;;;;22.10;13.35;;;;;;;2.89;87.94;100795.91;344117;28;1079;-66
2022/01/28 00:49:39;;;;;;;23.52;13.65;;;;;;;2.90;87.68;100795.06;345007;28;1200;-66
2022/01/28 00:49:51;;;;;;;24.45;13.48;;;;;;;2.86;87.25;100785.56;345051;28;1281;-66
2022/01/28 00:50:04;;;;;;;25.15;13.70;;;;;;;2.86;87.67;100783.00;344946;28;1192;-66
2022/01/28 00:50:17;;;;;;;24.40;13.18;;;;;;;2.86;87.14;100781.31;345024;28;1067;-66
2022/01/28 00:50:29;;;;;;;25.40;13.35;;;;;;;2.93;87.22;100784.84;345067;28;1007;-66
2022/01/28 00:50:42;;;;;;;25.73;14.30;;;;;;;2.92;86.87;100793.41;345002;28;1315;-66
2022/01/28 00:50:54;;;;;;;24.33;14.80;;;;;;;2.89;87.64;100783.06;344926;28;1463;-66
2022/01/28 00:51:06;;;;;;;23.23;14.07;;;;;;;2.87;87.40;100787.31;344986;28;1234;-66
2022/01/28 00:51:18;;;;;;;23.63;13.63;;;;;;;2.90;87.33;100777.09;344974;28;1074;-66
2022/01/28 00:51:31;;;;;;;24.17;13.75;;;;;;;2.88;87.40;100781.31;344915;28;1021;-66
2022/01/28 00:51:43;;;;;;;25.85;14.43;;;;;;;2.86;87.61;100789.00;344973;28;1026;-66
2022/01/28 00:51:56;;;;;;;26.10;14.15;;;;;;;2.86;87.54;100790.69;344832;28;1300;-66
2022/01/28 00:52:11;;;;;;;24.38;13.40;;;;;;;2.80;87.78;100779.50;345082;28;1150;-66
2022/01/28 00:52:23;;;;;;;22.98;13.13;;;;;;;2.72;87.72;100775.06;345063;28;1120;-66
2022/01/28 00:52:35;;;;;;;23.38;13.68;;;;;;;2.69;88.24;100781.00;345069;28;1135;-66
2022/01/28 00:52:47;;;;;;;26.25;14.80;;;;;;;2.69;87.87;100781.00;345102;28;1079;-66
2022/01/28 00:52:59;;;;;;;26.90;14.80;;;;;;;2.72;87.95;100777.66;344813;28;1256;-66
2022/01/28 00:53:12;;;;;;;26.50;14.25;;;;;;;2.73;88.13;100787.91;345119;28;1190;-66
2022/01/28 00:53:24;;;;;;;24.55;13.63;;;;;;;2.80;88.14;100778.63;345128;28;1062;-66
2022/01/28 00:53:36;;;;;;;25.23;13.88;;;;;;;2.78;87.92;100778.59;345243;28;1326;-66
2022/01/28 00:53:49;;;;;;;24.85;14.23;;;;;;;2.87;87.66;100779.59;345156;28;1089;-66
2022/01/28 00:54:01;;;;;;;24.15;14.23;;;;;;;2.78;87.62;100821.41;344871;28;1046;-66
2022/01/28 00:54:13;;;;;;;24.27;13.60;;;;;;;2.69;87.76;100786.13;345163;28;1070;-66
2022/01/28 00:54:25;;;;;;;23.75;14.05;;;;;;;2.66;88.44;100786.09;344857;28;1172;-66
2022/01/28 00:54:37;;;;;;;26.33;14.77;;;;;;;2.75;88.35;100786.25;344620;28;1222;-66
2022/01/28 00:54:49;;;;;;;26.10;14.40;;;;;;;2.72;88.26;100788.78;344944;28;1075;-66
2022/01/28 00:55:01;;;;;;;24.40;13.38;;;;;;;2.71;88.06;100794.72;344369;28;1179;-66
2022/01/28 00:55:13;;;;;;;22.92;13.50;;;;;;;2.65;88.41;100792.06;344967;28;1276;-66
2022/01/28 00:55:25;;;;;;;24.20;14.05;;;;;;;2.63;88.66;100786.03;344994;28;1058;-66
2022/01/28 00:55:37;;;;;;;23.52;13.45;;;;;;;2.57;88.84;100797.03;345172;28;1292;-66
2022/01/28 00:55:50;;;;;;;23.02;13.05;;;;;;;2.51;88.70;100780.69;345058;28;1149;-66
2022/01/28 00:56:02;;;;;;;23.83;13.10;;;;;;;2.56;89.26;100789.34;345149;28;1078;-66
2022/01/28 00:56:14;;;;;;;24.35;13.95;;;;;;;2.53;88.82;100779.00;345021;28;1075;-66
2022/01/28 00:56:26;;;;;;;25.60;14.93;;;;;;;2.52;89.27;100775.56;344919;28;1176;-66
2022/01/28 00:56:38;;;;;;;24.95;14.13;;;;;;;2.49;89.06;100788.34;344498;28;1176;-66
2022/01/28 00:56:50;;;;;;;24.70;13.55;;;;;;;2.54;89.29;100785.88;344981;28;1091;-66
2022/01/28 00:57:02;;;;;;;24.80;13.55;;;;;;;2.51;89.33;100785.81;344879;28;1152;-66
2022/01/28 00:57:17;;;;;;;25.98;14.07;;;;;;;2.56;89.41;100791.91;344953;28;1023;-67
2022/01/28 00:57:29;;;;;;;26.33;14.00;;;;;;;2.55;89.23;100792.72;345148;28;1069;-66
2022/01/28 00:57:41;;;;;;;25.58;13.55;;;;;;;2.54;89.27;100796.16;344947;28;1067;-66
2022/01/28 00:57:53;;;;;;;25.90;13.45;;;;;;;2.53;89.43;100794.41;345180;28;1054;-66
2022/01/28 00:58:05;;;;;;;26.65;13.93;;;;;;;2.58;89.07;100780.81;345045;28;1325;-66
2022/01/28 00:58:17;;;;;;;25.75;13.77;;;;;;;2.58;89.04;100803.06;345110;28;1276;-66
2022/01/28 00:58:29;;;;;;;25.80;13.75;;;;;;;2.65;88.81;100789.47;345138;28;1036;-66
2022/01/28 00:58:43;;;;;;;24.35;13.25;;;;;;;2.63;88.60;100791.16;344916;28;1067;-66
2022/01/28 00:58:55;;;;;;;24.27;12.75;;;;;;;2.62;88.77;100794.56;344994;28;1054;-67
2022/01/28 00:59:07;;;;;;;25.52;13.70;;;;;;;2.66;88.57;100796.38;344678;28;1034;-66
2022/01/28 00:59:19;;;;;;;25.55;14.23;;;;;;;2.64;88.50;100795.47;344985;28;1574;-66
2022/01/28 00:59:31;;;;;;;25.50;14.73;;;;;;;2.57;88.70;100797.03;344820;28;1152;-66
2022/01/28 00:59:43;;;;;;;23.23;13.65;;;;;;;2.57;89.11;100798.75;344824;28;997;-66
2022/01/28 00:59:55;;;;;;;22.95;13.25;;;;;;;2.56;89.27;100791.91;344823;28;1139;-66
2022/01/28 01:00:10;;;;;;;23.50;13.23;;;;;;;2.60;88.97;100783.41;344763;28;1132;-66
2022/01/28 01:00:22;;;;;;;24.33;13.68;;;;;;;2.70;88.57;100787.03;344894;28;1081;-66
2022/01/28 01:00:34;;;;;;;25.10;14.38;;;;;;;2.69;88.73;100791.25;344886;28;1071;-66
2022/01/28 01:00:46;;;;;;;26.95;14.82;;;;;;;2.60;88.35;100791.13;344913;28;1067;-66
2022/01/28 01:00:58;;;;;;;25.70;13.75;;;;;;;2.68;88.87;100794.69;344707;28;1043;-66
2022/01/28 01:01:10;;;;;;;25.17;13.40;;;;;;;2.74;88.08;100794.78;344052;28;1070;-66
2022/01/28 01:01:22;;;;;;;24.48;13.73;;;;;;;2.74;88.34;100805.06;345025;28;1281;-66
2022/01/28 01:01:34;;;;;;;24.40;13.65;;;;;;;2.63;88.21;100832.22;343739;28;1118;-66
2022/01/28 01:01:46;;;;;;;24.58;13.65;;;;;;;2.59;88.75;100821.03;343548;28;1099;-66
2022/01/28 01:01:58;;;;;;;23.88;13.80;;;;;;;2.71;88.33;100794.72;343482;28;1179;-66
2022/01/28 01:02:11;;;;;;;22.58;13.85;;;;;;;2.72;88.64;100799.03;343520;28;1259;-66
2022/01/28 01:02:29;;;;;;;22.75;13.38;;;;;;;2.69;88.18;100791.25;343570;28;1088;-66
2022/01/28 01:02:41;;;;;;;24.80;13.40;;;;;;;2.72;88.22;100822.16;342652;28;1047;-66
2022/01/28 01:02:53;;;;;;;24.48;13.85;;;;;;;2.71;88.38;100807.56;343306;28;1141;-66
2022/01/28 01:03:06;;;;;;;25.13;14.07;;;;;;;2.71;88.17;100806.72;342299;28;1072;-66
2022/01/28 01:03:18;;;;;;;25.35;13.23;;;;;;;2.64;87.97;100800.59;343227;28;1161;-66
2022/01/28 01:03:30;;;;;;;25.83;13.90;;;;;;;2.64;88.53;100808.31;343673;28;1066;-66
2022/01/28 01:03:42;;;;;;;25.45;14.10;;;;;;;2.65;88.42;100802.31;344619;28;1125;-66
2022/01/28 01:03:56;;;;;;;25.95;13.60;;;;;;;2.67;88.21;100792.09;344747;28;1227;-66
2022/01/28 01:04:08;;;;;;;27.38;13.32;;;;;;;2.66;88.25;100806.63;343615;28;1008;-66
2022/01/28 01:04:20;;;;;;;26.08;14.05;;;;;;;2.63;88.45;100805.72;343291;28;1076;-66
2022/01/28 01:04:32;;;;;;;26.17;15.02;;;;;;;2.62;88.79;100809.97;343136;28;1287;-66
2022/01/28 01:04:44;;;;;;;24.38;14.23;;;;;;;2.60;88.83;100802.25;343410;28;1910;-66
2022/01/28 01:04:56;;;;;;;23.55;13.55;;;;;;;2.58;88.99;100803.06;343286;28;1288;-66
2022/01/28 01:05:08;;;;;;;24.00;13.52;;;;;;;2.59;88.76;100802.22;343691;28;1059;-66
2022/01/28 01:05:22;;;;;;;24.17;13.85;;;;;;;2.50;88.84;100804.63;345054;28;1050;-66
2022/01/28 01:05:34;;;;;;;23.65;13.98;;;;;;;2.54;89.04;100798.72;345043;28;1136;-66
2022/01/28 01:05:46;;;;;;;24.65;14.25;;;;;;;2.55;88.93;100798.72;343667;28;1043;-66
2022/01/28 01:05:58;;;;;;;24.20;14.25;;;;;;;2.54;89.08;100811.53;343507;28;1051;-66
2022/01/28 01:06:10;;;;;;;24.50;14.20;;;;;;;2.58;89.43;100808.19;343845;28;1028;-66
2022/01/28 01:06:22;;;;;;;24.92;14.07;;;;;;;2.61;88.70;100823.63;344835;28;1123;-66
2022/01/28 01:06:34;;;;;;;24.92;14.40;;;;;;;2.52;89.14;100813.22;344701;28;1261;-66
2022/01/28 01:06:46;;;;;;;24.25;14.35;;;;;;;2.48;88.88;100798.59;344813;28;1125;-66
2022/01/28 01:06:58;;;;;;;24.75;14.38;;;;;;;2.52;88.99;100797.81;344789;28;1583;-66
2022/01/28 01:07:10;;;;;;;24.30;14.20;;;;;;;2.53;89.33;100802.09;344941;28;1344;-66
2022/01/28 01:07:22;;;;;;;23.98;13.88;;;;;;;2.60;89.24;100802.25;344800;28;1016;-66
2022/01/28 01:07:34;;;;;;;23.95;13.73;;;;;;;2.59;89.03;100795.38;344970;28;1018;-66
2022/01/28 01:07:50;;;;;;;26.85;13.70;;;;;;;2.63;88.63;100796.28;345012;28;1007;-66
2022/01/28 01:08:04;;;;;;;26.30;14.07;;;;;;;2.69;88.46;100796.41;345044;28;1069;-66
2022/01/28 01:08:16;;;;;;;25.05;14.98;;;;;;;2.65;88.57;100799.75;345077;28;1067;-66
2022/01/28 01:08:28;;;;;;;26.23;14.80;;;;;;;2.68;88.53;100804.97;345154;28;1042;-66
2022/01/28 01:08:40;;;;;;;27.23;14.35;;;;;;;2.59;88.56;100810.75;344927;28;1400;-66
2022/01/28 01:08:52;;;;;;;25.35;13.98;;;;;;;2.57;88.66;100807.31;345132;28;1050;-66
2022/01/28 01:09:04;;;;;;;26.15;14.57;;;;;;;2.55;89.08;100803.00;345063;28;1081;-66
2022/01/28 01:09:16;;;;;;;26.70;14.88;;;;;;;2.56;88.60;100797.03;344721;28;1203;-66
2022/01/28 01:09:28;;;;;;;27.33;14.65;;;;;;;2.52;88.75;100813.22;345008;28;1049;-66
2022/01/28 01:09:40;;;;;;;25.17;13.43;;;;;;;2.55;88.91;100803.00;344756;28;1089;-66
2022/01/28 01:09:52;;;;;;;23.08;12.65;;;;;;;2.54;89.39;100806.41;345002;28;1175;-66
2022/01/28 01:10:06;;;;;;;22.88;13.25;;;;;;;2.63;89.06;100806.56;344875;28;1062;-66
2022/01/28 01:10:18;;;;;;;24.48;14.07;;;;;;;2.63;88.63;100806.56;344821;28;1057;-66
2022/01/28 01:10:31;;;;;;;25.17;13.68;;;;;;;2.66;88.70;100811.75;344829;28;1096;-66
2022/01/28 01:10:43;;;;;;;26.27;13.88;;;;;;;2.77;88.29;100807.66;344908;28;1053;-66
2022/01/28 01:10:55;;;;;;;26.92;14.35;;;;;;;2.73;88.40;100808.47;345006;28;1311;-66
2022/01/28 01:11:07;;;;;;;25.55;13.88;;;;;;;2.74;88.39;100825.59;345923;28;1529;-66
2022/01/28 01:11:22;;;;;;;25.70;13.95;;;;;;;2.62;88.26;100815.13;346122;28;1061;-67
2022/01/28 01:11:34;;;;;;;26.95;14.70;;;;;;;2.61;88.54;100803.09;346551;28;1179;-66
2022/01/28 01:11:46;;;;;;;26.30;14.70;;;;;;;2.60;88.64;100807.38;346256;28;1098;-66
2022/01/28 01:11:58;;;;;;;25.95;14.00;;;;;;;2.58;88.77;100819.31;346325;28;1025;-66
2022/01/28 01:12:11;;;;;;;26.25;13.70;;;;;;;2.63;88.71;100810.84;346469;28;1022;-66
2022/01/28 01:12:25;;;;;;;26.13;14.38;;;;;;;2.73;88.50;100813.59;346435;28;1176;-66
2022/01/28 01:12:43;;;;;;;23.83;13.85;;;;;;;2.70;88.17;100808.41;346433;28;1222;-66
2022/01/28 01:12:56;;;;;;;22.65;13.10;;;;;;;2.76;88.67;100811.09;346296;28;1046;-66
2022/01/28 01:13:09;;;;;;;22.92;13.77;;;;;;;2.72;88.05;100795.63;346146;28;1062;-66
2022/01/28 01:13:21;;;;;;;23.60;14.32;;;;;;;2.72;88.37;100819.56;345836;28;1060;-67
2022/01/28 01:13:37;;;;;;;23.80;13.73;;;;;;;2.68;88.12;100819.50;346381;28;1259;-66
2022/01/28 01:13:50;;;;;;;25.00;14.07;;;;;;;2.70;88.13;100823.81;346290;28;1133;-66
2022/01/28 01:14:02;;;;;;;26.20;15.00;;;;;;;2.66;88.32;100816.03;346172;28;1052;-66
2022/01/28 01:14:14;;;;;;;25.70;14.15;;;;;;;2.65;88.10;100810.03;346178;28;1078;-66
2022/01/28 01:14:27;;;;;;;24.70;13.25;;;;;;;2.70;88.34;100813.56;345896;28;1215;-66
2022/01/28 01:14:39;;;;;;;24.98;13.43;;;;;;;2.73;88.25;100817.88;346201;28;1039;-66
2022/01/28 01:14:51;;;;;;;25.88;13.93;;;;;;;2.75;88.13;100822.19;346400;28;1106;-66
2022/01/28 01:15:03;;;;;;;26.10;14.52;;;;;;;2.75;88.08;100829.88;347324;28;1341;-66
2022/01/28 01:15:23;;;;;;;24.83;14.15;;;;;;;2.69;88.04;100810.94;346349;28;1034;-66
2022/01/28 01:15:39;;;;;;;22.95;12.65;;;;;;;2.61;88.68;100808.25;346361;28;1710;-66
2022/01/28 01:15:56;;;;;;;24.77;12.98;;;;;;;2.70;88.62;100823.81;346305;28;1142;-66
2022/01/28 01:16:12;;;;;;;26.63;14.45;;;;;;;2.75;87.85;100817.06;346330;28;1062;-66
2022/01/28 01:16:32;;;;;;;26.40;15.13;;;;;;;2.73;87.93;100823.84;346389;28;1184;-66
2022/01/28 01:17:16;;;;;;;24.30;13.85;;;;;;;2.63;88.64;100815.97;346305;28;1300;-66
2022/01/28 01:17:55;;;;;;;24.58;13.45;;;;;;;2.51;88.90;100827.72;346347;28;1184;-66
2022/01/28 01:18:37;;;;;;;26.48;14.10;;;;;;;2.58;89.01;100823.59;346344;28;1292;-66
2022/01/28 01:19:21;;;;;;;26.58;14.50;;;;;;;2.65;88.54;100835.69;344997;28;1497;-66
2022/01/28 01:19:39;;;;;;;25.33;14.57;;;;;;;2.74;88.62;100825.59;344976;28;1102;-66
2022/01/28 01:19:59;;;;;;;27.00;14.48;;;;;;;2.69;88.45;100837.47;345105;28;1142;-66
2022/01/28 01:20:38;;;;;;;27.15;14.30;;;;;;;2.68;88.12;100835.75;345096;28;1066;-66
2022/01/28 01:21:16;;;;;;;23.75;13.85;;;;;;;2.66;88.16;100819.47;345071;28;1226;-66
2022/01/28 01:21:30;;;;;;;24.38;13.98;;;;;;;2.69;88.51;100836.63;344947;28;1039;-66
2022/01/28 01:21:43;;;;;;;24.30;14.27;;;;;;;2.64;88.24;100828.00;344854;28;986;-66
2022/01/28 01:21:58;;;;;;;25.15;14.43;;;;;;;2.74;88.46;100820.47;345008;28;1093;-66
2022/01/28 01:22:11;;;;;;;25.55;14.10;;;;;;;2.76;87.97;100833.34;344987;28;1256;-67
2022/01/28 01:22:25;;;;;;;25.52;14.57;;;;;;;2.78;88.06;100827.38;344815;28;1240;-66
2022/01/28 01:22:39;;;;;;;25.65;15.18;;;;;;;2.76;88.10;100820.50;345083;28;1170;-66
2022/01/28 01:23:11;;;;;;;23.67;14.27;;;;;;;2.76;87.78;100829.06;345113;28;1212;-66
2022/01/28 01:23:33;;;;;;;25.25;14.73;;;;;;;2.65;88.29;100834.84;344956;28;1035;-66
2022/01/28 01:23:53;;;;;;;26.10;14.52;;;;;;;2.69;88.72;100827.22;344885;28;1049;-66
2022/01/28 01:24:08;;;;;;;24.27;13.40;;;;;;;2.64;88.56;100831.41;345030;28;1088;-66
2022/01/28 01:24:23;;;;;;;24.48;13.65;;;;;;;2.64;88.79;100849.38;344841;28;969;-66
2022/01/28 01:24:46;;;;;;;23.55;14.07;;;;;;;2.70;88.41;100849.50;344786;28;1221;-66
2022/01/28 01:25:03;;;;;;;23.42;13.70;;;;;;;2.63;88.61;100837.38;345104;28;1258;-66
2022/01/28 01:25:23;;;;;;;25.63;14.77;;;;;;;2.72;88.78;100837.56;344924;28;1334;-66
2022/01/28 01:25:44;;;;;;;23.67;13.73;;;;;;;2.75;88.50;100831.59;344902;28;1266;-66
2022/01/28 01:26:07;;;;;;;25.33;14.75;;;;;;;2.77;87.98;100828.22;345092;28;1307;-66
2022/01/28 01:26:28;;;;;;;24.05;14.43;;;;;;;2.78;87.82;100829.97;344860;28;1073;-66
2022/01/28 01:26:41;;;;;;;23.40;12.63;;;;;;;2.77;87.87;100838.47;345090;28;1272;-66
2022/01/28 01:26:53;;;;;;;24.85;13.30;;;;;;;2.74;88.01;100835.88;345130;28;1050;-66
2022/01/28 01:27:05;;;;;;;24.35;13.68;;;;;;;2.73;88.49;100839.25;344726;28;1245;-66
2022/01/28 01:27:19;;;;;;;24.20;14.30;;;;;;;2.76;88.03;100829.06;344799;28;1156;-66
2022/01/28 01:27:31;;;;;;;24.90;14.75;;;;;;;2.79;87.98;100829.09;344959;28;1065;-66
2022/01/28 01:27:47;;;;;;;25.10;14.30;;;;;;;2.83;88.29;100839.44;344752;28;1086;-66
2022/01/28 01:28:01;;;;;;;25.73;15.00;;;;;;;2.89;87.78;100839.56;344666;28;1086;-66
2022/01/28 01:28:14;;;;;;;25.35;14.85;;;;;;;2.82;87.81;100833.44;344765;28;1229;-66
2022/01/28 01:28:31;;;;;;;24.23;14.00;;;;;;;2.73;87.75;100833.28;344619;28;1175;-66
2022/01/28 01:28:43;;;;;;;24.63;13.35;;;;;;;2.76;88.11;100836.78;344807;28;1165;-66
2022/01/28 01:28:55;;;;;;;24.90;13.13;;;;;;;2.82;88.07;100835.13;344759;28;1058;-67
2022/01/28 01:29:13;;;;;;;26.58;14.43;;;;;;;2.87;87.52;100846.38;345175;28;1163;-66
2022/01/28 01:29:25;;;;;;;26.05;14.57;;;;;;;2.76;88.03;100838.47;344812;28;1198;-66
2022/01/28 01:29:41;;;;;;;23.67;13.55;;;;;;;2.72;88.09;100834.13;344880;28;1089;-66
2022/01/28 01:29:53;;;;;;;23.98;13.77;;;;;;;2.73;88.33;100867.50;344680;28;1035;-66
2022/01/28 01:30:06;;;;;;;24.45;13.73;;;;;;;2.71;88.43;100840.09;344678;28;1061;-66
2022/01/28 01:30:18;;;;;;;24.88;14.35;;;;;;;2.73;87.94;100839.25;344773;28;1130;-66
2022/01/28 01:30:38;;;;;;;25.38;15.20;;;;;;;2.71;88.05;100848.63;344784;28;1037;-66
2022/01/28 01:30:50;;;;;;;23.38;13.52;;;;;;;2.67;88.28;100844.28;344775;28;1015;-66
2022/01/28 01:31:05;;;;;;;24.23;14.00;;;;;;;2.77;88.27;100848.75;344820;28;1055;-66